createdAt,value
2019-01-06T00:00:20.699Z,94.50
2019-01-06T00:02:55.391Z,94.20
2019-01-06T00:05:29.129Z,94.10
2019-01-06T00:08:02.781Z,94.10
2019-01-06T00:11:37.298Z,94.00
2019-01-06T00:14:11.119Z,93.90
2019-01-06T00:16:50.730Z,93.90
2019-01-06T00:19:27.288Z,93.90
2019-01-06T00:22:59.598Z,93.90
2019-01-06T00:25:33.489Z,93.90
2019-01-06T00:28:09.030Z,94.00
2019-01-06T00:31:01.962Z,94.00
2019-01-06T00:33:35.400Z,93.90
2019-01-06T00:37:07.788Z,93.90
2019-01-06T00:41:49.129Z,93.80
2019-01-06T00:44:36.984Z,93.80
2019-01-06T00:47:13.511Z,93.80
2019-01-06T00:49:47.266Z,93.80
2019-01-06T00:52:20.942Z,93.80
2019-01-06T00:58:12.812Z,93.50
2019-01-06T01:00:47.446Z,93.80
2019-01-06T01:04:18.841Z,93.70
2019-01-06T01:07:09.432Z,93.70
2019-01-06T01:09:43.138Z,93.60
2019-01-06T01:12:17.533Z,93.60
2019-01-06T01:14:51.929Z,93.70
2019-01-06T01:17:31.436Z,93.70
2019-01-06T01:20:04.980Z,94.00
2019-01-06T01:22:39.556Z,93.70
2019-01-06T01:25:13.224Z,93.70
2019-01-06T01:27:46.738Z,93.70
2019-01-06T01:30:29.350Z,93.70
2019-01-06T01:34:01.557Z,93.70
2019-01-06T01:36:39.082Z,93.70
2019-01-06T01:39:15.701Z,93.70
2019-01-06T01:43:55.104Z,93.70
2019-01-06T01:46:27.736Z,93.70
2019-01-06T01:49:01.374Z,93.70
2019-01-06T01:51:37.998Z,93.60
2019-01-06T01:54:10.643Z,93.70
2019-01-06T01:56:48.084Z,93.70
2019-01-06T01:59:21.817Z,93.70
2019-01-06T02:01:55.593Z,93.70
2019-01-06T02:04:29.314Z,93.70
2019-01-06T02:07:02.994Z,93.60
2019-01-06T02:09:38.384Z,93.60
2019-01-06T02:12:25.956Z,93.60
2019-01-06T02:14:59.409Z,93.60
2019-01-06T02:18:34.973Z,93.60
2019-01-06T02:21:08.782Z,93.50
2019-01-06T02:23:42.648Z,93.50
2019-01-06T02:26:16.354Z,93.50
2019-01-06T02:28:50.170Z,93.50
2019-01-06T02:31:27.733Z,93.40
2019-01-06T02:34:01.267Z,93.40
2019-01-06T02:37:32.779Z,93.40
2019-01-06T02:40:08.396Z,93.40
2019-01-06T02:42:42.313Z,93.40
2019-01-06T02:45:16.186Z,93.30
2019-01-06T02:47:50.001Z,93.30
2019-01-06T02:51:25.424Z,93.30
2019-01-06T02:54:00.918Z,93.20
2019-01-06T02:57:38.356Z,93.20
2019-01-06T03:00:12.029Z,93.20
2019-01-06T03:04:48.330Z,93.20
2019-01-06T03:07:57.413Z,93.20
2019-01-06T03:10:31.290Z,93.20
2019-01-06T03:15:51.427Z,92.80
2019-01-06T03:18:27.988Z,93.10
2019-01-06T03:22:01.356Z,93.00
2019-01-06T03:24:35.978Z,93.10
2019-01-06T03:27:10.520Z,93.00
2019-01-06T03:29:44.288Z,93.00
2019-01-06T03:32:17.722Z,93.00
2019-01-06T03:34:58.426Z,93.00
2019-01-06T03:38:03.384Z,93.00
2019-01-06T03:41:37.050Z,93.00
2019-01-06T03:44:19.831Z,93.00
2019-01-06T03:46:56.481Z,93.10
2019-01-06T03:51:38.032Z,93.10
2019-01-06T03:56:15.298Z,93.10
2019-01-06T03:58:48.754Z,92.70
2019-01-06T04:01:22.725Z,93.00
2019-01-06T04:03:56.326Z,93.00
2019-01-06T04:06:29.842Z,93.00
2019-01-06T04:09:03.665Z,93.00
2019-01-06T04:11:37.553Z,93.10
2019-01-06T04:14:17.079Z,93.10
2019-01-06T04:16:54.691Z,93.00
2019-01-06T04:22:22.189Z,92.60
2019-01-06T04:25:57.906Z,92.80
2019-01-06T04:30:34.238Z,92.70
2019-01-06T04:33:07.851Z,92.70
2019-01-06T04:35:41.706Z,92.80
2019-01-06T04:38:50.710Z,92.80
2019-01-06T04:41:26.326Z,93.00
2019-01-06T04:44:00.832Z,92.90
2019-01-06T04:46:39.358Z,93.00
2019-01-06T04:49:13.006Z,93.00
2019-01-06T04:53:55.632Z,93.10
2019-01-06T04:56:29.279Z,93.20
2019-01-06T04:59:03.164Z,93.20
2019-01-06T05:01:37.101Z,93.20
2019-01-06T05:04:25.740Z,93.20
2019-01-06T05:07:03.464Z,93.20
2019-01-06T05:09:37.938Z,93.10
2019-01-06T05:12:12.524Z,93.10
2019-01-06T05:15:48.961Z,93.10
2019-01-06T05:18:22.717Z,93.10
2019-01-06T05:24:43.025Z,92.70
2019-01-06T05:28:16.502Z,93.00
2019-01-06T05:31:48.925Z,93.00
2019-01-06T05:36:27.929Z,93.00
2019-01-06T05:39:00.561Z,93.00
2019-01-06T05:41:33.193Z,93.00
2019-01-06T05:44:05.844Z,93.00
2019-01-06T05:46:39.328Z,93.00
2019-01-06T05:49:18.957Z,93.00
2019-01-06T05:51:54.409Z,93.00
2019-01-06T05:55:27.751Z,93.00
2019-01-06T06:00:06.187Z,93.00
2019-01-06T06:02:41.841Z,92.90
2019-01-06T06:05:15.572Z,92.90
2019-01-06T06:07:52.065Z,92.80
2019-01-06T06:10:25.997Z,92.90
2019-01-06T06:13:03.629Z,92.90
2019-01-06T06:15:43.134Z,92.90
2019-01-06T06:21:02.881Z,92.60
2019-01-06T06:23:39.485Z,92.90
2019-01-06T06:26:43.527Z,92.90
2019-01-06T06:29:23.120Z,92.90
2019-01-06T06:31:56.778Z,93.00
2019-01-06T06:34:30.384Z,93.00
2019-01-06T06:40:07.212Z,92.70
2019-01-06T06:42:39.825Z,93.00
2019-01-06T06:46:18.272Z,93.00
2019-01-06T06:48:54.889Z,93.00
2019-01-06T06:51:29.568Z,93.00
2019-01-06T06:54:03.265Z,93.00
2019-01-06T06:59:23.234Z,92.70
2019-01-06T07:02:17.262Z,93.00
2019-01-06T07:04:55.984Z,93.00
2019-01-06T07:07:29.542Z,93.00
2019-01-06T07:10:17.298Z,93.00
2019-01-06T07:13:22.391Z,92.90
2019-01-06T07:15:58.985Z,92.80
2019-01-06T07:18:32.801Z,92.70
2019-01-06T07:22:07.377Z,92.80
2019-01-06T07:24:37.963Z,92.80
2019-01-06T07:27:11.837Z,92.70
2019-01-06T07:33:44.213Z,92.60
2019-01-06T07:36:23.757Z,93.10
2019-01-06T07:39:01.381Z,93.20
2019-01-06T07:42:03.528Z,93.20
2019-01-06T07:44:44.240Z,93.10
2019-01-06T07:47:48.109Z,93.20
2019-01-06T07:50:20.847Z,93.20
2019-01-06T07:53:00.498Z,93.30
2019-01-06T07:55:34.205Z,93.30
2019-01-06T07:58:13.877Z,93.40
2019-01-06T08:00:53.406Z,93.30
2019-01-06T08:06:27.260Z,93.10
2019-01-06T08:09:00.771Z,93.40
2019-01-06T08:11:34.569Z,93.50
2019-01-06T08:15:08.808Z,93.50
2019-01-06T08:17:42.696Z,93.60
2019-01-06T08:21:18.184Z,93.60
2019-01-06T08:23:52.677Z,93.60
2019-01-06T08:28:34.182Z,93.70
2019-01-06T08:32:06.732Z,93.70
2019-01-06T08:34:40.530Z,94.00
2019-01-06T08:38:11.977Z,94.00
2019-01-06T08:42:52.859Z,94.00
2019-01-06T08:46:28.328Z,94.10
2019-01-06T08:49:01.961Z,94.20
2019-01-06T08:51:35.761Z,94.00
2019-01-06T08:54:09.491Z,94.00
2019-01-06T08:57:41.103Z,93.90
2019-01-06T09:00:14.868Z,93.80
2019-01-06T09:02:48.458Z,93.80
2019-01-06T09:05:24.111Z,93.70
2019-01-06T09:09:02.049Z,93.70
2019-01-06T09:11:35.949Z,93.80
2019-01-06T09:14:09.582Z,93.70
2019-01-06T09:16:48.099Z,93.80
2019-01-06T09:19:21.852Z,93.70
2019-01-06T09:21:55.610Z,93.70
2019-01-06T09:24:29.499Z,93.70
2019-01-06T09:27:03.292Z,93.80
2019-01-06T09:35:31.073Z,94.70
2019-01-06T09:38:06.897Z,94.90
2019-01-06T09:41:46.448Z,94.90
2019-01-06T09:44:23.932Z,94.20
2019-01-06T09:47:00.436Z,93.60
2019-01-06T09:49:34.179Z,93.40
2019-01-06T09:54:12.504Z,93.50
2019-01-06T09:56:45.972Z,93.80
2019-01-06T09:59:19.604Z,93.40
2019-01-06T10:01:53.345Z,93.20
2019-01-06T10:06:32.669Z,93.20
2019-01-06T10:09:11.165Z,93.80
2019-01-06T10:13:51.507Z,92.60
2019-01-06T10:16:31.112Z,91.90
2019-01-06T10:19:04.890Z,90.50
2019-01-06T10:21:54.741Z,89.80
2019-01-06T10:24:32.393Z,90.30
2019-01-06T10:27:05.965Z,90.10
2019-01-06T10:29:43.463Z,90.10
2019-01-06T10:32:17.155Z,90.40
2019-01-06T10:34:55.828Z,90.50
2019-01-06T10:37:33.293Z,90.90
2019-01-06T10:40:14.830Z,90.80
2019-01-06T10:42:48.513Z,91.10
2019-01-06T10:45:25.026Z,91.40
2019-01-06T10:49:04.382Z,91.40
2019-01-06T10:51:38.017Z,91.70
2019-01-06T10:54:11.529Z,91.40
2019-01-06T10:56:45.120Z,91.20
2019-01-06T10:59:51.059Z,91.10
2019-01-06T11:02:29.552Z,91.20
2019-01-06T11:05:02.582Z,90.70
2019-01-06T11:07:39.170Z,90.90
2019-01-06T11:10:14.354Z,90.10
2019-01-06T11:12:48.961Z,89.90
2019-01-06T11:15:26.613Z,90.00
2019-01-06T11:18:01.257Z,90.00
2019-01-06T11:20:34.855Z,90.00
2019-01-06T11:23:12.566Z,89.00
2019-01-06T11:25:46.296Z,89.70
2019-01-06T11:29:18.599Z,90.00
2019-01-06T11:31:52.434Z,89.90
2019-01-06T11:34:26.130Z,89.00
2019-01-06T11:41:58.234Z,88.50
2019-01-06T11:47:36.469Z,88.90
2019-01-06T13:45:03.479Z,83.30
2019-01-06T13:48:06.469Z,84.80
2019-01-06T13:50:46.087Z,85.10
2019-01-06T13:54:20.481Z,85.20
2019-01-06T13:58:56.864Z,85.40
2019-01-06T14:02:32.325Z,85.20
2019-01-06T14:05:26.078Z,85.50
2019-01-06T14:07:59.870Z,85.30
2019-01-06T14:10:36.374Z,85.10
2019-01-06T14:13:18.081Z,85.10
2019-01-06T14:15:51.753Z,85.00
2019-01-06T14:18:43.569Z,85.70
2019-01-06T14:21:19.055Z,85.40
2019-01-06T14:23:52.668Z,85.20
2019-01-06T14:26:29.302Z,85.50
2019-01-06T14:29:07.846Z,85.40
2019-01-06T14:33:44.802Z,85.20
2019-01-06T14:36:18.568Z,85.50
2019-01-06T14:38:52.350Z,85.50
2019-01-06T14:41:26.869Z,85.40
2019-01-06T14:44:00.522Z,85.20
2019-01-06T14:46:34.307Z,85.80
2019-01-06T14:49:10.892Z,86.30
2019-01-06T14:51:44.648Z,85.50
2019-01-06T14:54:23.163Z,85.40
2019-01-06T14:57:58.402Z,85.80
2019-01-06T15:00:34.022Z,86.10
2019-01-06T15:05:11.279Z,86.80
2019-01-06T15:07:45.184Z,86.00
2019-01-06T15:10:19.480Z,86.20
2019-01-06T15:12:53.179Z,86.00
2019-01-06T15:15:27.054Z,86.30
2019-01-06T15:19:04.456Z,86.30
2019-01-06T15:21:40.145Z,86.60
2019-01-06T15:24:17.769Z,86.60
2019-01-06T15:26:50.399Z,86.40
2019-01-06T15:29:26.885Z,86.10
2019-01-06T15:32:00.570Z,86.40
2019-01-06T15:34:34.233Z,86.70
2019-01-06T15:39:15.526Z,86.50
2019-01-06T15:41:49.199Z,86.50
2019-01-06T15:45:28.709Z,86.20
2019-01-06T15:48:05.214Z,86.30
2019-01-06T15:50:39.045Z,86.50
2019-01-06T15:54:12.518Z,86.70
2019-01-06T15:57:54.676Z,86.80
2019-01-06T16:00:28.539Z,87.10
2019-01-06T16:03:06.134Z,87.00
2019-01-06T16:05:41.525Z,86.80
2019-01-06T16:09:18.704Z,86.80
2019-01-06T16:12:58.478Z,86.70
2019-01-06T16:15:32.324Z,86.50
2019-01-06T16:18:06.222Z,86.40
2019-01-06T16:22:45.650Z,86.50
2019-01-06T16:25:27.341Z,86.40
2019-01-06T16:28:58.486Z,86.20
2019-01-06T16:32:35.002Z,86.50
2019-01-06T16:35:11.664Z,86.20
2019-01-06T16:37:45.340Z,86.50
2019-01-06T16:40:24.877Z,86.10
2019-01-06T16:42:58.501Z,86.10
2019-01-06T16:46:01.506Z,86.80
2019-01-06T16:48:43.477Z,87.30
2019-01-06T16:51:17.325Z,87.00
2019-01-06T16:53:51.069Z,87.60
2019-01-06T16:56:24.806Z,87.60
2019-01-06T17:01:01.007Z,87.10
2019-01-06T17:03:34.906Z,87.30
2019-01-06T17:06:08.370Z,86.80
2019-01-06T17:09:44.997Z,86.40
2019-01-06T17:13:16.323Z,86.00
2019-01-06T17:17:57.759Z,86.20
2019-01-06T17:22:34.001Z,85.60
2019-01-06T17:25:07.816Z,85.20
2019-01-06T17:28:42.315Z,84.80
2019-01-06T17:31:17.027Z,84.50
2019-01-06T17:33:53.497Z,85.50
2019-01-06T17:36:27.277Z,84.60
2019-01-06T17:41:07.590Z,84.70
2019-01-06T17:44:13.637Z,84.90
2019-01-06T17:46:53.330Z,84.80
2019-01-06T17:49:25.976Z,85.30
2019-01-06T17:52:07.581Z,85.20
2019-01-06T17:55:11.723Z,85.30
2019-01-06T17:58:49.092Z,85.20
2019-01-06T18:01:22.908Z,85.60
2019-01-06T18:04:03.473Z,85.20
2019-01-06T18:06:38.991Z,85.70
2019-01-06T18:12:03.157Z,85.10
2019-01-06T18:14:42.842Z,85.60
2019-01-06T18:18:18.408Z,85.30
2019-01-06T18:21:53.809Z,85.60
2019-01-06T18:24:33.337Z,85.20
2019-01-06T18:27:07.081Z,85.30
2019-01-06T18:29:43.598Z,85.30
2019-01-06T18:34:20.912Z,85.20
2019-01-06T18:36:54.762Z,85.20
2019-01-06T18:39:58.755Z,85.20
2019-01-06T18:42:32.538Z,85.20
2019-01-06T18:45:24.364Z,85.90
2019-01-06T18:48:56.933Z,85.90
2019-01-06T18:51:33.505Z,86.10
2019-01-06T18:54:06.161Z,86.20
2019-01-06T18:58:45.382Z,86.40
2019-01-06T19:01:19.141Z,86.40
2019-01-06T19:03:52.726Z,86.10
2019-01-06T19:06:58.705Z,86.20
2019-01-06T19:17:57.644Z,86.30
2019-01-06T19:23:22.486Z,87.30
2019-01-06T19:25:56.236Z,87.60
2019-01-06T19:28:29.736Z,87.40
2019-01-06T19:32:01.988Z,87.60
2019-01-06T19:34:35.808Z,87.40
2019-01-06T19:37:09.769Z,87.40
2019-01-06T19:39:43.456Z,87.30
2019-01-06T19:42:19.505Z,87.40
2019-01-06T19:47:00.617Z,87.70
2019-01-06T19:49:40.571Z,88.90
2019-01-06T19:52:13.759Z,88.30
2019-01-06T19:54:49.549Z,87.70
2019-01-06T19:57:22.405Z,87.60
2019-01-06T20:00:12.127Z,88.00
2019-01-06T20:02:49.725Z,88.20
2019-01-06T20:05:23.549Z,87.90
2019-01-06T20:07:59.151Z,87.60
2019-01-06T20:10:33.838Z,87.80
2019-01-06T20:13:09.213Z,87.70
2019-01-06T20:15:46.779Z,88.00
2019-01-06T20:18:27.547Z,88.10
2019-01-06T20:23:06.164Z,88.50
2019-01-06T20:25:55.083Z,88.60
2019-01-06T20:28:33.149Z,88.60
2019-01-06T20:31:07.035Z,88.90
2019-01-06T20:33:42.677Z,88.80
2019-01-06T20:36:15.311Z,89.00
2019-01-06T20:39:00.161Z,89.10
2019-01-06T20:42:34.389Z,88.90
2019-01-06T20:46:05.861Z,89.00
2019-01-06T20:48:39.641Z,89.10
2019-01-06T20:53:15.899Z,88.90
2019-01-06T20:57:54.503Z,88.90
2019-01-06T21:00:31.225Z,88.80
2019-01-06T21:03:05.069Z,88.80
2019-01-06T21:05:39.607Z,88.80
2019-01-06T21:08:13.266Z,88.80
2019-01-06T21:10:48.750Z,89.00
2019-01-06T21:13:22.422Z,89.00
2019-01-06T21:15:56.372Z,89.20
2019-01-06T21:18:36.947Z,89.50
2019-01-06T21:21:15.645Z,89.60
2019-01-06T21:23:49.358Z,89.80
2019-01-06T21:28:26.833Z,90.00
2019-01-06T21:30:59.507Z,89.80
2019-01-06T21:33:34.975Z,89.80
2019-01-06T21:36:12.474Z,89.80
2019-01-06T21:38:48.999Z,89.90
2019-01-06T21:41:21.602Z,90.00
2019-01-06T21:43:57.176Z,90.00
2019-01-06T21:46:31.047Z,90.00
2019-01-06T21:49:03.665Z,90.00
2019-01-06T21:51:36.336Z,90.20
2019-01-06T21:54:10.144Z,90.40
2019-01-06T21:59:29.141Z,90.00
2019-01-06T22:02:03.541Z,90.40
2019-01-06T22:05:38.112Z,90.30
2019-01-06T22:10:18.523Z,90.20
2019-01-06T22:13:04.102Z,90.40
2019-01-06T22:15:40.628Z,90.30
2019-01-06T22:18:24.225Z,90.40
2019-01-06T22:20:58.730Z,90.40
2019-01-06T22:23:48.491Z,90.40
2019-01-06T22:29:46.546Z,90.30
2019-01-06T22:32:19.205Z,90.70
2019-01-06T22:34:57.797Z,90.60
2019-01-06T22:37:33.403Z,90.70
2019-01-06T22:40:07.073Z,90.80
2019-01-06T22:42:43.688Z,90.80
2019-01-06T22:45:32.691Z,90.70
2019-01-06T22:48:06.374Z,90.80
2019-01-06T22:50:40.219Z,90.80
2019-01-06T22:53:17.717Z,90.80
2019-01-06T23:00:28.767Z,90.60
2019-01-06T23:03:02.401Z,90.90
2019-01-06T23:05:38.970Z,90.90
2019-01-06T23:08:12.661Z,91.00
2019-01-06T23:10:46.558Z,90.90
2019-01-06T23:13:24.123Z,91.00
2019-01-06T23:16:02.850Z,91.20
2019-01-06T23:18:45.594Z,90.90
2019-01-06T23:21:19.435Z,90.90
2019-01-06T23:25:59.333Z,90.90
2019-01-06T23:28:33.127Z,91.00
2019-01-06T23:32:04.583Z,91.00
2019-01-06T23:34:38.141Z,91.00
2019-01-06T23:38:15.416Z,91.00
2019-01-06T23:41:03.036Z,90.90
2019-01-06T23:43:36.937Z,90.90
2019-01-06T23:46:10.666Z,90.90
2019-01-06T23:48:45.075Z,91.10
2019-01-06T23:51:17.708Z,91.00
2019-01-06T23:53:51.512Z,91.00
2019-01-06T23:56:31.235Z,91.10
